sensor_id;sensor_type;location;lat;lon;timestamp;P1;durP1;ratioP1;P2;durP2;ratioP2
23768;SDS011;12064;50.890;5.424;2023-08-31T00:06:20;0.85;;;0.80;;
23768;SDS011;12064;50.890;5.424;2023-08-31T00:15:11;0.80;;;0.80;;
23768;SDS011;12064;50.890;5.424;2023-08-31T00:24:04;0.80;;;0.80;;
23768;SDS011;12064;50.890;5.424;2023-08-31T00:32:55;0.70;;;0.60;;
23768;SDS011;12064;50.890;5.424;2023-08-31T00:41:50;3.63;;;0.90;;
23768;SDS011;12064;50.890;5.424;2023-08-31T00:50:46;0.90;;;0.60;;
23768;SDS011;12064;50.890;5.424;2023-08-31T00:59:37;0.73;;;0.73;;
23768;SDS011;12064;50.890;5.424;2023-08-31T01:08:36;1.08;;;0.95;;
23768;SDS011;12064;50.890;5.424;2023-08-31T01:17:33;0.93;;;0.77;;
23768;SDS011;12064;50.890;5.424;2023-08-31T01:26:35;0.70;;;0.70;;
23768;SDS011;12064;50.890;5.424;2023-08-31T01:35:26;0.80;;;0.70;;
23768;SDS011;12064;50.890;5.424;2023-08-31T01:44:23;0.70;;;0.70;;
23768;SDS011;12064;50.890;5.424;2023-08-31T01:53:15;0.80;;;0.80;;
23768;SDS011;12064;50.890;5.424;2023-08-31T02:02:06;1.03;;;0.60;;
23768;SDS011;12064;50.890;5.424;2023-08-31T02:10:57;0.73;;;0.73;;
23768;SDS011;12064;50.890;5.424;2023-08-31T02:19:47;0.57;;;0.57;;
23768;SDS011;12064;50.890;5.424;2023-08-31T02:28:38;1.23;;;0.77;;
23768;SDS011;12064;50.890;5.424;2023-08-31T02:37:29;0.80;;;0.80;;
23768;SDS011;12064;50.890;5.424;2023-08-31T02:46:22;1.63;;;0.77;;
23768;SDS011;12064;50.890;5.424;2023-08-31T02:55:13;0.70;;;0.68;;
23768;SDS011;12064;50.890;5.424;2023-08-31T03:04:07;0.70;;;0.70;;
23768;SDS011;12064;50.890;5.424;2023-08-31T03:12:57;0.60;;;0.60;;
23768;SDS011;12064;50.890;5.424;2023-08-31T03:21:49;0.93;;;0.75;;
23768;SDS011;12064;50.890;5.424;2023-08-31T03:30:40;0.80;;;0.70;;
23768;SDS011;12064;50.890;5.424;2023-08-31T03:39:30;0.60;;;0.60;;
23768;SDS011;12064;50.890;5.424;2023-08-31T03:48:22;0.70;;;0.68;;
23768;SDS011;12064;50.890;5.424;2023-08-31T03:57:13;2.70;;;0.70;;
23768;SDS011;12064;50.890;5.424;2023-08-31T04:06:04;0.70;;;0.70;;
23768;SDS011;12064;50.890;5.424;2023-08-31T04:14:55;0.70;;;0.70;;
23768;SDS011;12064;50.890;5.424;2023-08-31T04:23:46;0.70;;;0.70;;
23768;SDS011;12064;50.890;5.424;2023-08-31T04:32:37;0.90;;;0.70;;
23768;SDS011;12064;50.890;5.424;2023-08-31T04:41:28;0.60;;;0.60;;
23768;SDS011;12064;50.890;5.424;2023-08-31T04:50:18;0.73;;;0.60;;
23768;SDS011;12064;50.890;5.424;2023-08-31T04:59:09;1.40;;;0.80;;
23768;SDS011;12064;50.890;5.424;2023-08-31T05:08:00;0.75;;;0.60;;
23768;SDS011;12064;50.890;5.424;2023-08-31T05:16:51;1.10;;;0.60;;
23768;SDS011;12064;50.890;5.424;2023-08-31T05:25:42;0.70;;;0.60;;
23768;SDS011;12064;50.890;5.424;2023-08-31T05:34:33;0.90;;;0.75;;
23768;SDS011;12064;50.890;5.424;2023-08-31T05:43:27;0.82;;;0.82;;
23768;SDS011;12064;50.890;5.424;2023-08-31T05:52:18;1.73;;;1.00;;
23768;SDS011;12064;50.890;5.424;2023-08-31T06:01:09;1.00;;;0.88;;
23768;SDS011;12064;50.890;5.424;2023-08-31T06:09:59;1.88;;;0.80;;
23768;SDS011;12064;50.890;5.424;2023-08-31T06:18:53;1.67;;;0.88;;
23768;SDS011;12064;50.890;5.424;2023-08-31T06:27:44;0.97;;;0.70;;
23768;SDS011;12064;50.890;5.424;2023-08-31T06:36:36;1.05;;;0.80;;
23768;SDS011;12064;50.890;5.424;2023-08-31T06:45:26;3.60;;;0.80;;
23768;SDS011;12064;50.890;5.424;2023-08-31T06:54:17;3.17;;;1.70;;
23768;SDS011;12064;50.890;5.424;2023-08-31T07:03:08;4.28;;;1.90;;
23768;SDS011;12064;50.890;5.424;2023-08-31T07:11:58;6.45;;;1.88;;
23768;SDS011;12064;50.890;5.424;2023-08-31T07:20:49;3.63;;;1.83;;
23768;SDS011;12064;50.890;5.424;2023-08-31T07:29:40;3.72;;;1.52;;
23768;SDS011;12064;50.890;5.424;2023-08-31T07:38:31;3.70;;;1.90;;
23768;SDS011;12064;50.890;5.424;2023-08-31T07:47:22;6.07;;;1.90;;
23768;SDS011;12064;50.890;5.424;2023-08-31T07:56:13;4.72;;;1.90;;
23768;SDS011;12064;50.890;5.424;2023-08-31T08:05:04;4.65;;;1.73;;
23768;SDS011;12064;50.890;5.424;2023-08-31T08:13:55;5.85;;;2.00;;
23768;SDS011;12064;50.890;5.424;2023-08-31T08:22:46;6.97;;;2.00;;
23768;SDS011;12064;50.890;5.424;2023-08-31T08:31:39;6.85;;;2.20;;
23768;SDS011;12064;50.890;5.424;2023-08-31T08:40:33;7.45;;;2.40;;
23768;SDS011;12064;50.890;5.424;2023-08-31T08:49:25;6.85;;;2.00;;
23768;SDS011;12064;50.890;5.424;2023-08-31T08:58:17;8.05;;;1.90;;
23768;SDS011;12064;50.890;5.424;2023-08-31T09:07:09;4.80;;;1.90;;
23768;SDS011;12064;50.890;5.424;2023-08-31T09:16:00;5.50;;;1.98;;
23768;SDS011;12064;50.890;5.424;2023-08-31T09:24:50;5.65;;;1.90;;
23768;SDS011;12064;50.890;5.424;2023-08-31T09:33:49;4.53;;;2.20;;
23768;SDS011;12064;50.890;5.424;2023-08-31T09:42:45;5.78;;;2.05;;
23768;SDS011;12064;50.890;5.424;2023-08-31T09:51:46;7.22;;;2.40;;
23768;SDS011;12064;50.890;5.424;2023-08-31T10:00:39;4.53;;;1.90;;
23768;SDS011;12064;50.890;5.424;2023-08-31T10:09:36;5.38;;;1.90;;
23768;SDS011;12064;50.890;5.424;2023-08-31T10:18:27;3.70;;;1.80;;
23768;SDS011;12064;50.890;5.424;2023-08-31T10:27:19;5.18;;;2.10;;
23768;SDS011;12064;50.890;5.424;2023-08-31T10:36:14;4.38;;;2.05;;
23768;SDS011;12064;50.890;5.424;2023-08-31T10:45:08;4.07;;;2.00;;
23768;SDS011;12064;50.890;5.424;2023-08-31T11:03:16;6.00;;;1.98;;
23768;SDS011;12064;50.890;5.424;2023-08-31T11:12:07;4.63;;;1.63;;
23768;SDS011;12064;50.890;5.424;2023-08-31T11:20:58;4.38;;;1.65;;
23768;SDS011;12064;50.890;5.424;2023-08-31T11:29:51;5.72;;;1.80;;
23768;SDS011;12064;50.890;5.424;2023-08-31T11:38:41;4.35;;;1.90;;
23768;SDS011;12064;50.890;5.424;2023-08-31T11:47:32;4.07;;;1.58;;
23768;SDS011;12064;50.890;5.424;2023-08-31T11:56:24;4.10;;;1.50;;
23768;SDS011;12064;50.890;5.424;2023-08-31T12:05:14;3.85;;;1.65;;
23768;SDS011;12064;50.890;5.424;2023-08-31T12:14:17;3.28;;;1.70;;
23768;SDS011;12064;50.890;5.424;2023-08-31T12:23:17;3.78;;;1.80;;
23768;SDS011;12064;50.890;5.424;2023-08-31T12:32:11;3.63;;;1.73;;
23768;SDS011;12064;50.890;5.424;2023-08-31T12:41:01;3.03;;;1.43;;
23768;SDS011;12064;50.890;5.424;2023-08-31T12:49:52;4.47;;;1.80;;
23768;SDS011;12064;50.890;5.424;2023-08-31T12:58:43;3.38;;;1.65;;
23768;SDS011;12064;50.890;5.424;2023-08-31T13:07:34;3.40;;;1.60;;
23768;SDS011;12064;50.890;5.424;2023-08-31T13:16:26;4.07;;;1.80;;
23768;SDS011;12064;50.890;5.424;2023-08-31T13:25:17;4.93;;;1.70;;
23768;SDS011;12064;50.890;5.424;2023-08-31T13:34:07;3.95;;;1.60;;
23768;SDS011;12064;50.890;5.424;2023-08-31T13:43:00;3.47;;;1.60;;
23768;SDS011;12064;50.890;5.424;2023-08-31T13:51:53;3.85;;;1.40;;
23768;SDS011;12064;50.890;5.424;2023-08-31T14:00:43;6.43;;;1.65;;
23768;SDS011;12064;50.890;5.424;2023-08-31T14:09:34;5.93;;;2.08;;
23768;SDS011;12064;50.890;5.424;2023-08-31T14:18:26;4.85;;;2.22;;
23768;SDS011;12064;50.890;5.424;2023-08-31T14:27:20;9.40;;;2.50;;
23768;SDS011;12064;50.890;5.424;2023-08-31T14:36:13;4.05;;;1.85;;
23768;SDS011;12064;50.890;5.424;2023-08-31T14:45:08;7.80;;;2.00;;
23768;SDS011;12064;50.890;5.424;2023-08-31T14:53:59;3.58;;;1.63;;
23768;SDS011;12064;50.890;5.424;2023-08-31T15:02:49;5.45;;;1.90;;
23768;SDS011;12064;50.890;5.424;2023-08-31T15:11:40;4.03;;;1.90;;
23768;SDS011;12064;50.890;5.424;2023-08-31T15:20:31;4.93;;;1.90;;
23768;SDS011;12064;50.890;5.424;2023-08-31T15:29:22;3.65;;;1.70;;
23768;SDS011;12064;50.890;5.424;2023-08-31T15:38:12;2.65;;;1.67;;
23768;SDS011;12064;50.890;5.424;2023-08-31T15:47:03;3.42;;;1.60;;
23768;SDS011;12064;50.890;5.424;2023-08-31T15:55:54;2.47;;;1.50;;
23768;SDS011;12064;50.890;5.424;2023-08-31T16:04:45;2.03;;;1.50;;
23768;SDS011;12064;50.890;5.424;2023-08-31T16:13:38;3.20;;;1.63;;
23768;SDS011;12064;50.890;5.424;2023-08-31T16:22:30;2.92;;;1.67;;
23768;SDS011;12064;50.890;5.424;2023-08-31T16:31:21;1.60;;;1.50;;
23768;SDS011;12064;50.890;5.424;2023-08-31T16:40:12;2.40;;;1.83;;
23768;SDS011;12064;50.890;5.424;2023-08-31T16:49:03;2.33;;;1.40;;
23768;SDS011;12064;50.890;5.424;2023-08-31T16:57:54;2.15;;;1.45;;
23768;SDS011;12064;50.890;5.424;2023-08-31T17:06:45;2.25;;;1.52;;
23768;SDS011;12064;50.890;5.424;2023-08-31T17:15:37;2.88;;;1.35;;
23768;SDS011;12064;50.890;5.424;2023-08-31T17:24:28;1.63;;;1.52;;
23768;SDS011;12064;50.890;5.424;2023-08-31T17:33:18;2.60;;;1.47;;
23768;SDS011;12064;50.890;5.424;2023-08-31T17:42:09;1.83;;;1.45;;
23768;SDS011;12064;50.890;5.424;2023-08-31T17:51:00;2.35;;;1.67;;
23768;SDS011;12064;50.890;5.424;2023-08-31T17:59:51;1.50;;;1.40;;
23768;SDS011;12064;50.890;5.424;2023-08-31T18:08:45;1.88;;;1.40;;
23768;SDS011;12064;50.890;5.424;2023-08-31T18:17:36;1.63;;;1.50;;
23768;SDS011;12064;50.890;5.424;2023-08-31T18:26:27;1.83;;;1.50;;
23768;SDS011;12064;50.890;5.424;2023-08-31T18:35:18;1.95;;;1.50;;
23768;SDS011;12064;50.890;5.424;2023-08-31T18:44:08;1.83;;;1.23;;
23768;SDS011;12064;50.890;5.424;2023-08-31T18:52:59;1.60;;;1.50;;
23768;SDS011;12064;50.890;5.424;2023-08-31T19:01:50;1.97;;;1.23;;
23768;SDS011;12064;50.890;5.424;2023-08-31T19:10:40;1.37;;;1.10;;
23768;SDS011;12064;50.890;5.424;2023-08-31T19:19:31;2.42;;;1.40;;
23768;SDS011;12064;50.890;5.424;2023-08-31T19:28:22;1.60;;;1.20;;
23768;SDS011;12064;50.890;5.424;2023-08-31T19:37:12;1.38;;;1.20;;
23768;SDS011;12064;50.890;5.424;2023-08-31T19:46:08;1.55;;;1.38;;
23768;SDS011;12064;50.890;5.424;2023-08-31T19:55:01;1.40;;;1.30;;
23768;SDS011;12064;50.890;5.424;2023-08-31T20:03:53;1.30;;;1.20;;
23768;SDS011;12064;50.890;5.424;2023-08-31T20:12:43;1.65;;;1.35;;
23768;SDS011;12064;50.890;5.424;2023-08-31T20:21:34;1.60;;;1.20;;
23768;SDS011;12064;50.890;5.424;2023-08-31T20:30:25;2.05;;;1.33;;
23768;SDS011;12064;50.890;5.424;2023-08-31T20:39:17;2.08;;;1.30;;
23768;SDS011;12064;50.890;5.424;2023-08-31T20:48:08;2.03;;;1.48;;
23768;SDS011;12064;50.890;5.424;2023-08-31T20:57:01;4.93;;;1.50;;
23768;SDS011;12064;50.890;5.424;2023-08-31T21:05:54;3.03;;;1.30;;
23768;SDS011;12064;50.890;5.424;2023-08-31T21:14:44;3.25;;;1.50;;
23768;SDS011;12064;50.890;5.424;2023-08-31T21:23:35;2.67;;;1.60;;
23768;SDS011;12064;50.890;5.424;2023-08-31T21:32:26;2.75;;;1.30;;
23768;SDS011;12064;50.890;5.424;2023-08-31T21:41:17;2.43;;;1.60;;
23768;SDS011;12064;50.890;5.424;2023-08-31T21:50:08;1.60;;;1.50;;
23768;SDS011;12064;50.890;5.424;2023-08-31T21:58:59;3.83;;;1.35;;
23768;SDS011;12064;50.890;5.424;2023-08-31T22:07:49;4.05;;;1.60;;
23768;SDS011;12064;50.890;5.424;2023-08-31T22:16:41;2.83;;;1.55;;
23768;SDS011;12064;50.890;5.424;2023-08-31T22:25:33;1.90;;;1.30;;
23768;SDS011;12064;50.890;5.424;2023-08-31T22:34:24;3.17;;;1.50;;
23768;SDS011;12064;50.890;5.424;2023-08-31T22:43:15;2.03;;;1.38;;
23768;SDS011;12064;50.890;5.424;2023-08-31T22:52:09;3.35;;;1.38;;
23768;SDS011;12064;50.890;5.424;2023-08-31T23:01:01;2.35;;;1.20;;
23768;SDS011;12064;50.890;5.424;2023-08-31T23:09:53;3.25;;;1.33;;
23768;SDS011;12064;50.890;5.424;2023-08-31T23:18:44;1.48;;;1.33;;
23768;SDS011;12064;50.890;5.424;2023-08-31T23:27:34;2.63;;;1.25;;
23768;SDS011;12064;50.890;5.424;2023-08-31T23:36:25;1.43;;;1.30;;
23768;SDS011;12064;50.890;5.424;2023-08-31T23:45:16;2.10;;;1.30;;
23768;SDS011;12064;50.890;5.424;2023-08-31T23:54:07;1.70;;;1.20;;
